Time;durP1;ratioP1;P1;durP2;ratioP2;P2;SDS_P1;SDS_P2;PMS_P1;PMS_P2;Temp;Humidity;BMP_temperature;BMP_pressure;BME280_temperature;BME280_humidity;BME280_pressure;Samples;Min_cycle;Max_cycle;Signal;HPM_P1;HPM_P2
2022/08/06 00:02:24;;;;;;;15.40;11.10;;;;;;;23.49;61.91;100140.41;107903;1270;92961;-89
2022/08/06 00:05:02;;;;;;;15.30;11.00;;;;;;;23.51;61.82;100145.27;107339;1273;92939;-82
2022/08/06 00:07:34;;;;;;;13.90;10.80;;;;;;;23.59;61.86;100150.45;105267;1271;138647;-84
2022/08/06 00:10:13;;;;;;;14.40;11.20;;;;;;;23.62;61.99;100148.77;105388;1271;99833;-82
2022/08/06 00:12:41;;;;;;;13.30;11.10;;;;;;;23.54;62.46;100149.95;105260;1271;140511;-82
2022/08/06 00:15:12;;;;;;;14.50;11.30;;;;;;;23.45;62.54;100148.91;105253;1273;96106;-83
2022/08/06 00:17:42;;;;;;;14.10;11.00;;;;;;;23.42;62.34;100152.98;105423;1271;95765;-85
2022/08/06 00:20:12;;;;;;;14.20;11.10;;;;;;;23.47;62.31;100173.75;105278;1273;110186;-85
2022/08/06 00:22:54;;;;;;;13.60;10.90;;;;;;;23.43;62.56;100178.07;105242;1271;98891;-83
2022/08/06 00:25:22;;;;;;;13.70;11.00;;;;;;;23.26;63.17;100149.56;105199;1271;141520;-84
2022/08/06 00:27:52;;;;;;;15.00;10.60;;;;;;;23.14;63.37;100149.49;105401;1271;95303;-82
2022/08/06 00:30:20;;;;;;;14.80;11.20;;;;;;;23.18;63.25;100149.54;105311;1270;140424;-82
2022/08/06 00:32:51;;;;;;;13.90;11.20;;;;;;;23.24;63.07;100163.48;105454;1269;110724;-82
2022/08/06 00:35:20;;;;;;;16.20;11.80;;;;;;;23.24;63.02;100186.38;105555;1271;99948;-83
2022/08/06 00:37:55;;;;;;;16.20;11.30;;;;;;;23.18;63.38;100175.38;105370;1271;138682;-86
2022/08/06 00:40:28;;;;;;;13.60;10.60;;;;;;;23.07;63.52;100174.81;105634;1271;95752;-83
2022/08/06 00:43:02;;;;;;;12.40;10.40;;;;;;;23.09;64.02;100173.95;105407;1273;141101;-84
2022/08/06 00:45:35;;;;;;;13.70;11.30;;;;;;;22.91;64.41;100163.84;105578;1271;109507;-82
2022/08/06 00:48:05;;;;;;;13.90;10.90;;;;;;;22.80;64.43;100175.04;104317;1273;1312441;-81
2022/08/06 00:50:34;;;;;;;13.90;11.10;;;;;;;22.87;64.57;100182.94;105543;1270;108767;-84
2022/08/06 00:53:05;;;;;;;14.10;11.00;;;;;;;22.74;65.00;100170.09;105545;1270;95204;-81
2022/08/06 00:55:36;;;;;;;14.40;11.50;;;;;;;22.58;65.32;100170.86;105330;1271;139652;-84
2022/08/06 00:58:24;;;;;;;13.20;11.20;;;;;;;22.60;65.49;100170.51;105470;1271;110140;-82
2022/08/06 01:00:53;;;;;;;14.60;11.50;;;;;;;22.64;65.50;100167.13;105297;1273;140736;-81
2022/08/06 01:03:22;;;;;;;14.00;11.70;;;;;;;22.67;65.28;100163.17;105495;1271;108269;-85
2022/08/06 01:06:08;;;;;;;14.50;11.90;;;;;;;22.69;65.52;100160.66;105357;1271;141191;-81
2022/08/06 01:08:56;;;;;;;15.70;11.50;;;;;;;22.69;65.35;100165.54;105433;1271;95255;-85
2022/08/06 01:11:24;;;;;;;13.40;11.00;;;;;;;22.69;65.45;100161.11;105474;1271;110248;-81
2022/08/06 01:13:54;;;;;;;14.80;11.60;;;;;;;22.70;65.51;100163.15;105320;1271;139706;-81
2022/08/06 01:16:43;;;;;;;14.30;10.90;;;;;;;22.73;65.50;100166.41;105444;1271;107758;-84
2022/08/06 01:19:24;;;;;;;13.10;10.80;;;;;;;22.57;65.86;100166.52;105527;1271;140067;-84
2022/08/06 01:22:36;;;;;;;14.30;11.00;;;;;;;22.44;66.45;100156.92;105395;1271;95273;-82
2022/08/06 01:25:35;;;;;;;14.40;11.20;;;;;;;22.26;66.67;100145.64;105191;1271;139514;-83
2022/08/06 01:28:19;;;;;;;14.40;11.70;;;;;;;22.08;67.33;100139.86;105452;1271;98934;-81
2022/08/06 01:31:28;;;;;;;14.30;11.70;;;;;;;22.09;67.47;100139.41;105313;1273;140731;-80
2022/08/06 01:34:09;;;;;;;14.30;11.50;;;;;;;22.17;67.10;100139.11;105363;1273;95778;-84
2022/08/06 01:36:46;;;;;;;12.60;10.80;;;;;;;22.17;67.32;100140.18;105389;1271;141450;-86
2022/08/06 01:39:18;;;;;;;14.80;11.70;;;;;;;22.12;67.58;100137.73;105487;1273;107663;-82
2022/08/06 01:42:09;;;;;;;15.50;11.90;;;;;;;22.08;67.93;100136.77;105267;1271;139939;-85
2022/08/06 01:44:42;;;;;;;13.80;11.10;;;;;;;22.08;67.66;100138.06;105374;1271;109399;-82
2022/08/06 01:47:18;;;;;;;13.40;11.00;;;;;;;22.14;67.23;100139.58;105373;1271;95129;-83
2022/08/06 01:49:55;;;;;;;15.90;11.50;;;;;;;22.16;67.26;100144.48;105333;1271;140124;-85
2022/08/06 01:52:35;;;;;;;15.50;12.00;;;;;;;22.10;67.79;100141.52;105282;1271;110309;-82
2022/08/06 01:55:09;;;;;;;15.00;11.30;;;;;;;22.05;67.71;100143.83;105118;1271;139271;-83
2022/08/06 01:57:45;;;;;;;16.60;12.20;;;;;;;22.03;68.15;100143.27;105241;1271;108431;-82
2022/08/06 02:00:38;;;;;;;15.00;11.60;;;;;;;21.98;68.16;100140.44;105075;1271;141197;-81
2022/08/06 02:03:14;;;;;;;14.90;11.80;;;;;;;21.99;67.95;100141.84;105383;1270;95875;-83
2022/08/06 02:05:51;;;;;;;15.20;12.20;;;;;;;21.96;67.94;100140.05;105115;1271;140812;-81
2022/08/06 02:08:24;;;;;;;15.00;11.60;;;;;;;22.03;67.68;100136.83;105259;1271;98836;-78
2022/08/06 02:11:10;;;;;;;14.00;11.30;;;;;;;22.08;67.42;100140.58;105231;1272;108738;-85
2022/08/06 02:14:01;;;;;;;14.50;11.80;;;;;;;22.11;67.64;100138.21;105098;1271;141173;-83
2022/08/06 02:16:36;;;;;;;16.00;11.30;;;;;;;22.06;67.65;100141.02;105232;1273;95237;-82
2022/08/06 02:19:16;;;;;;;15.30;11.80;;;;;;;22.10;67.33;100146.77;105036;1271;140133;-83
2022/08/06 02:22:00;;;;;;;16.80;11.80;;;;;;;22.12;67.12;100155.27;105113;1270;98305;-82
2022/08/06 02:24:34;;;;;;;17.50;12.70;;;;;;;22.12;67.28;100148.55;104932;1272;140312;-82
2022/08/06 02:27:03;;;;;;;14.40;11.80;;;;;;;22.12;67.58;100147.88;105152;1271;95135;-82
2022/08/06 02:29:32;;;;;;;16.00;11.60;;;;;;;22.08;67.42;100156.86;105143;1270;95684;-84
2022/08/06 02:32:20;;;;;;;18.20;12.60;;;;;;;22.05;67.45;100160.54;105003;1271;108549;-81
2022/08/06 02:34:50;;;;;;;15.40;12.30;;;;;;;22.02;67.55;100157.33;105123;1273;99390;-81
2022/08/06 02:37:21;;;;;;;14.40;11.70;;;;;;;22.00;67.83;100153.48;104951;1271;141271;-82
2022/08/06 02:40:19;;;;;;;16.10;12.30;;;;;;;21.94;67.92;100148.55;105223;1271;95171;-81
2022/08/06 02:42:55;;;;;;;15.50;12.10;;;;;;;21.95;68.06;100148.08;105055;1273;141178;-81
2022/08/06 02:45:39;;;;;;;14.90;11.70;;;;;;;21.93;67.93;100153.47;105499;1271;110319;-82
2022/08/06 02:48:35;;;;;;;15.80;12.50;;;;;;;21.98;67.72;100161.58;105049;1271;141343;-85
2022/08/06 02:51:09;;;;;;;15.20;11.50;;;;;;;22.03;67.85;100159.55;105238;1271;108670;-84
2022/08/06 02:54:00;;;;;;;18.00;12.30;;;;;;;21.93;68.30;100159.31;105068;1271;140410;-81
2022/08/06 02:56:37;;;;;;;16.20;13.00;;;;;;;21.81;68.48;100158.05;105110;1273;95252;-83
2022/08/06 02:59:15;;;;;;;16.20;12.70;;;;;;;21.80;68.52;100157.38;105339;1271;110149;-84
2022/08/06 03:01:51;;;;;;;15.50;12.00;;;;;;;21.84;68.39;100160.88;105218;1270;140340;-83
2022/08/06 03:04:23;;;;;;;15.50;12.30;;;;;;;21.86;68.25;100165.77;105424;1271;109271;-81
2022/08/06 03:07:05;;;;;;;14.80;12.30;;;;;;;21.88;68.25;100162.90;105364;1271;139933;-82
2022/08/06 03:09:56;;;;;;;15.90;12.30;;;;;;;21.90;67.87;100170.51;105518;1271;95163;-82
2022/08/06 03:12:24;;;;;;;15.00;12.40;;;;;;;21.92;67.88;100175.77;105363;1271;142322;-82
2022/08/06 03:15:08;;;;;;;15.00;11.90;;;;;;;21.94;67.74;100176.05;105409;1271;98248;-83
2022/08/06 03:18:00;;;;;;;13.70;11.70;;;;;;;21.91;68.01;100182.23;105328;1271;142065;-82
2022/08/06 03:20:33;;;;;;;15.10;11.90;;;;;;;21.84;67.80;100186.73;105410;1271;95787;-82
2022/08/06 03:23:06;;;;;;;16.60;11.90;;;;;;;21.81;67.67;100186.19;105491;1271;95328;-89
2022/08/06 03:25:36;;;;;;;14.40;11.50;;;;;;;21.83;67.33;100192.71;105285;1271;140884;-83
2022/08/06 03:28:11;;;;;;;13.90;11.00;;;;;;;21.80;67.25;100191.90;105403;1271;100044;-85
2022/08/06 03:30:47;;;;;;;13.50;11.00;;;;;;;21.77;66.21;100201.18;105266;1271;141194;-82
2022/08/06 03:33:22;;;;;;;17.70;10.90;;;;;;;21.79;65.95;100203.16;105351;1271;95254;-82
2022/08/06 03:36:12;;;;;;;12.50;10.30;;;;;;;21.84;65.72;100197.39;105245;1273;141804;-82
2022/08/06 03:38:57;;;;;;;14.30;10.50;;;;;;;21.83;65.96;100195.27;105386;1271;111186;-83
2022/08/06 03:41:29;;;;;;;15.30;10.70;;;;;;;21.84;65.47;100197.55;105368;1273;99863;-83
2022/08/06 03:44:07;;;;;;;16.10;10.40;;;;;;;21.85;65.34;100201.59;105358;1271;139996;-86
2022/08/06 03:46:45;;;;;;;14.30;10.80;;;;;;;21.87;65.45;100214.28;105360;1271;95226;-83
2022/08/06 03:49:21;;;;;;;14.50;11.20;;;;;;;21.90;65.42;100215.17;105295;1271;141529;-82
2022/08/06 03:52:12;;;;;;;13.80;10.90;;;;;;;21.93;65.41;100219.98;105374;1271;110267;-82
2022/08/06 03:54:47;;;;;;;12.90;11.00;;;;;;;21.97;65.55;100211.92;105627;1271;140119;-83
2022/08/06 03:57:24;;;;;;;16.00;10.90;;;;;;;21.98;65.66;100212.77;105293;1270;107552;-82
2022/08/06 04:00:00;;;;;;;13.70;10.90;;;;;;;21.96;65.68;100220.13;105294;1271;138366;-83
2022/08/06 04:02:43;;;;;;;14.60;11.20;;;;;;;21.96;65.98;100221.21;105377;1273;95140;-82
2022/08/06 04:05:23;;;;;;;13.60;10.60;;;;;;;21.96;66.07;100222.27;105564;1271;110117;-84
2022/08/06 04:08:03;;;;;;;13.70;11.10;;;;;;;21.99;66.21;100221.32;105499;1271;141000;-82
2022/08/06 04:10:44;;;;;;;13.00;10.90;;;;;;;22.01;66.39;100230.04;105883;1270;109332;-87
2022/08/06 04:13:26;;;;;;;14.70;10.60;;;;;;;21.99;66.57;100239.95;105485;1271;140839;-83
2022/08/06 04:16:18;;;;;;;13.80;11.30;;;;;;;22.01;66.65;100244.33;105445;1270;95352;-82
2022/08/06 04:19:05;;;;;;;14.90;11.70;;;;;;;21.98;67.10;100249.46;105419;1271;140877;-83
2022/08/06 04:21:40;;;;;;;13.50;10.80;;;;;;;21.95;67.20;100256.00;105399;1273;99962;-83
2022/08/06 04:24:28;;;;;;;13.00;10.50;;;;;;;21.96;67.32;100259.20;105205;1271;141555;-79
2022/08/06 04:27:03;;;;;;;13.20;11.10;;;;;;;21.97;67.39;100258.91;105349;1271;96980;-82
2022/08/06 04:29:38;;;;;;;14.00;10.80;;;;;;;21.99;67.46;100266.73;105405;1273;94854;-80
2022/08/06 04:32:26;;;;;;;11.70;10.40;;;;;;;21.97;67.81;100269.45;105337;1271;110155;-87
2022/08/06 04:35:02;;;;;;;15.50;10.50;;;;;;;21.97;67.92;100274.30;105403;1271;99597;-81
2022/08/06 04:37:52;;;;;;;15.20;10.30;;;;;;;21.99;68.13;100283.89;105338;1271;139738;-84
2022/08/06 04:40:23;;;;;;;13.40;10.10;;;;;;;21.96;68.31;100291.58;105489;1271;95204;-83
2022/08/06 04:43:12;;;;;;;12.20;9.50;;;;;;;21.93;68.57;100295.92;105379;1271;142257;-83
2022/08/06 04:45:42;;;;;;;11.40;9.60;;;;;;;21.92;69.06;100301.83;105574;1271;110463;-85
2022/08/06 04:48:31;;;;;;;13.20;9.70;;;;;;;21.88;69.53;100300.48;105432;1273;140125;-81
2022/08/06 04:51:08;;;;;;;11.70;9.20;;;;;;;21.88;69.64;100302.64;105359;1271;109167;-85
2022/08/06 04:53:43;;;;;;;12.10;8.70;;;;;;;21.90;70.07;100313.38;105369;1271;95756;-81
2022/08/06 04:56:24;;;;;;;11.70;8.30;;;;;;;21.92;70.04;100320.96;105341;1271;95209;-84
2022/08/06 04:59:05;;;;;;;12.10;8.80;;;;;;;21.94;70.28;100326.26;105481;1271;110198;-87
2022/08/06 05:01:37;;;;;;;10.40;8.10;;;;;;;21.95;70.44;100327.42;105485;1271;140416;-82
2022/08/06 05:04:24;;;;;;;11.70;8.10;;;;;;;21.98;70.69;100324.14;105512;1271;108969;-82
2022/08/06 05:07:00;;;;;;;10.10;7.50;;;;;;;22.01;70.56;100324.27;105532;1271;141546;-87
2022/08/06 05:09:30;;;;;;;9.90;7.40;;;;;;;22.05;70.72;100319.59;105712;1271;95182;-81
2022/08/06 05:12:23;;;;;;;9.90;7.10;;;;;;;22.10;70.98;100320.00;106104;1271;138966;-85
2022/08/06 05:15:01;;;;;;;9.90;7.10;;;;;;;22.15;70.92;100323.55;107829;1273;98958;-86
2022/08/06 05:17:42;;;;;;;10.00;6.70;;;;;;;22.23;70.84;100322.59;107742;1271;109491;-80
2022/08/06 05:20:19;;;;;;;10.60;6.90;;;;;;;22.29;70.83;100330.52;106077;1271;95707;-80
2022/08/06 05:23:28;;;;;;;11.30;6.50;;;;;;;22.38;70.75;100339.97;105401;1273;95450;-87
2022/08/06 05:25:59;;;;;;;9.90;6.50;;;;;;;22.41;70.87;100354.56;105487;1271;139470;-85
2022/08/06 05:28:28;;;;;;;8.40;6.10;;;;;;;22.40;70.93;100366.56;105643;1271;97832;-82
2022/08/06 05:30:56;;;;;;;8.80;6.30;;;;;;;22.39;71.00;100378.58;105438;1271;138867;-81
2022/08/06 05:33:28;;;;;;;9.40;6.10;;;;;;;22.36;71.17;100388.14;105661;1271;95048;-86
2022/08/06 05:35:58;;;;;;;10.20;6.70;;;;;;;22.37;71.15;100399.17;105434;1273;141982;-89
2022/08/06 05:38:31;;;;;;;9.20;7.00;;;;;;;22.37;71.34;100409.84;105576;1271;109216;-84
2022/08/06 05:41:05;;;;;;;9.30;6.60;;;;;;;22.32;71.45;100422.09;105736;1271;99290;-81
2022/08/06 05:43:36;;;;;;;9.30;7.00;;;;;;;22.29;71.73;100431.77;105500;1271;140808;-82
2022/08/06 05:46:27;;;;;;;12.00;7.00;;;;;;;22.25;71.73;100432.80;105461;1271;95218;-82
2022/08/06 05:49:07;;;;;;;9.80;6.60;;;;;;;22.20;72.07;100435.31;105244;1273;141791;-82
2022/08/06 05:52:07;;;;;;;8.60;7.00;;;;;;;22.16;72.09;100441.02;105469;1270;109700;-82
2022/08/06 05:55:00;;;;;;;10.40;7.00;;;;;;;22.10;72.44;100451.06;105371;1271;139421;-84
2022/08/06 05:57:42;;;;;;;9.00;7.00;;;;;;;22.05;72.75;100450.36;105391;1272;109499;-83
2022/08/06 06:00:23;;;;;;;9.90;7.20;;;;;;;22.00;73.10;100450.52;105202;1271;140917;-82
2022/08/06 06:03:13;;;;;;;9.30;7.00;;;;;;;21.95;73.44;100449.79;105648;1271;95113;-81
2022/08/06 06:05:54;;;;;;;10.20;7.30;;;;;;;21.91;73.63;100457.53;105424;1271;141179;-85
2022/08/06 06:08:42;;;;;;;8.30;7.10;;;;;;;21.87;73.82;100459.56;105576;1271;97358;-85
2022/08/06 06:11:31;;;;;;;9.60;7.10;;;;;;;21.85;73.79;100459.72;105356;1271;108397;-82
2022/08/06 06:14:34;;;;;;;9.60;7.60;;;;;;;21.87;73.94;100464.27;105466;1271;95220;-85
2022/08/06 06:17:19;;;;;;;10.30;8.20;;;;;;;21.90;73.85;100471.48;105633;1271;95644;-84
2022/08/06 06:20:19;;;;;;;12.80;8.10;;;;;;;21.92;74.00;100467.94;105362;1271;138517;-82
2022/08/06 06:23:26;;;;;;;11.30;8.10;;;;;;;21.99;73.63;100467.05;105388;1271;98444;-79
2022/08/06 06:26:15;;;;;;;10.20;8.00;;;;;;;22.09;73.42;100477.35;105302;1273;140463;-83
2022/08/06 06:29:39;;;;;;;10.80;8.30;;;;;;;22.15;73.14;100483.45;105411;1271;95244;-85
2022/08/06 06:32:32;;;;;;;11.20;8.50;;;;;;;22.18;73.21;100491.49;105540;1273;95116;-86
2022/08/06 06:35:21;;;;;;;10.70;7.90;;;;;;;22.20;73.10;100494.80;105522;1271;108791;-85
2022/08/06 06:37:56;;;;;;;10.30;7.70;;;;;;;22.20;73.25;100503.45;105524;1271;141443;-83
2022/08/06 06:40:53;;;;;;;10.10;7.50;;;;;;;22.20;73.08;100511.29;105594;1271;107686;-83
2022/08/06 06:44:09;;;;;;;11.80;7.40;;;;;;;22.19;73.07;100510.62;105267;1271;140147;-85
2022/08/06 06:47:15;;;;;;;9.60;7.10;;;;;;;22.19;73.00;100509.16;105461;1271;95263;-85
2022/08/06 06:49:44;;;;;;;11.10;7.80;;;;;;;22.21;73.62;100509.20;105478;1271;139926;-83
2022/08/06 06:52:34;;;;;;;9.70;7.80;;;;;;;22.17;73.89;100510.95;105630;1271;99387;-83
2022/08/06 06:55:25;;;;;;;11.50;8.00;;;;;;;22.11;74.61;100518.09;105331;1271;139535;-86
2022/08/06 06:58:36;;;;;;;10.70;8.10;;;;;;;22.05;74.80;100522.14;105587;1271;95223;-84
2022/08/06 07:01:08;;;;;;;11.90;7.40;;;;;;;22.04;74.86;100524.52;105567;1271;139911;-86
2022/08/06 07:03:58;;;;;;;10.70;6.70;;;;;;;22.00;75.03;100526.09;105546;1271;109988;-86
2022/08/06 07:06:30;;;;;;;10.90;6.50;;;;;;;21.94;75.12;100529.43;105598;1271;141393;-83
2022/08/06 07:09:22;;;;;;;10.20;6.10;;;;;;;21.89;75.07;100532.52;105598;1271;108119;-88
2022/08/06 07:12:12;;;;;;;9.30;5.90;;;;;;;21.83;75.45;100528.91;105754;1271;140907;-81
2022/08/06 07:14:50;;;;;;;9.70;6.20;;;;;;;21.83;75.45;100533.48;105859;1271;95229;-85
2022/08/06 07:17:31;;;;;;;10.40;6.20;;;;;;;21.83;75.63;100535.27;105634;1271;110077;-85
2022/08/06 07:20:26;;;;;;;9.70;6.20;;;;;;;21.84;75.39;100538.79;105638;1271;96449;-85
2022/08/06 07:23:00;;;;;;;9.70;6.00;;;;;;;21.80;75.41;100539.23;105694;1273;108523;-82
2022/08/06 07:25:48;;;;;;;8.60;5.20;;;;;;;21.76;75.51;100539.71;105231;1273;139400;-83
2022/08/06 07:28:25;;;;;;;8.10;5.20;;;;;;;21.67;75.25;100542.16;105534;1271;95090;-84
2022/08/06 07:31:02;;;;;;;9.00;5.30;;;;;;;21.62;75.61;100546.65;105287;1272;139212;-85
2022/08/06 07:33:40;;;;;;;8.70;4.60;;;;;;;21.65;75.70;100554.42;105387;1271;97945;-85
2022/08/06 07:36:31;;;;;;;7.40;4.60;;;;;;;21.69;75.48;100556.64;105214;1271;141316;-83
2022/08/06 07:39:10;;;;;;;7.70;4.50;;;;;;;21.67;75.43;100554.79;105653;1271;95258;-84
2022/08/06 07:41:45;;;;;;;8.20;5.00;;;;;;;21.72;75.50;100562.77;105474;1271;95254;-87
2022/08/06 07:44:37;;;;;;;9.80;4.90;;;;;;;21.79;75.51;100566.45;105385;1272;108820;-84
2022/08/06 07:47:33;;;;;;;7.60;4.50;;;;;;;21.81;75.48;100566.33;105488;1271;98333;-87
2022/08/06 07:50:14;;;;;;;9.50;4.10;;;;;;;21.80;75.72;100559.73;105427;1273;108376;-82
2022/08/06 07:52:43;;;;;;;8.70;4.40;;;;;;;21.80;75.80;100565.48;105483;1271;95525;-81
2022/08/06 07:55:14;;;;;;;7.60;3.80;;;;;;;21.74;75.78;100568.45;105479;1271;138369;-78
2022/08/06 07:57:43;;;;;;;7.90;3.60;;;;;;;21.75;75.65;100580.13;105700;1270;109157;-81
2022/08/06 08:00:26;;;;;;;7.30;3.40;;;;;;;21.77;75.53;100590.28;105386;1271;141041;-81
2022/08/06 08:06:22;;;;;;;6.60;3.50;;;;;;;21.70;75.54;100595.09;105547;1271;141243;-83
2022/08/06 08:08:55;;;;;;;5.80;3.20;;;;;;;21.71;75.81;100596.50;105683;1271;95646;-82
2022/08/06 08:11:25;;;;;;;6.10;3.10;;;;;;;21.69;75.87;100608.00;105840;1271;110312;-84
2022/08/06 08:14:17;;;;;;;5.90;3.00;;;;;;;21.70;75.96;100619.11;105685;1271;100393;-83
2022/08/06 08:16:46;;;;;;;5.40;2.60;;;;;;;21.74;75.69;100624.32;105952;1272;108608;-85
2022/08/06 08:19:33;;;;;;;6.20;2.90;;;;;;;21.71;75.78;100626.10;105894;1271;140945;-81
2022/08/06 08:22:05;;;;;;;6.20;3.20;;;;;;;21.69;75.97;100627.68;106221;1270;95326;-86
2022/08/06 08:24:35;;;;;;;6.60;3.00;;;;;;;21.66;76.19;100636.04;106089;1271;139536;-82
2022/08/06 08:27:08;;;;;;;6.80;2.80;;;;;;;21.68;76.32;100652.15;106351;1271;100218;-81
2022/08/06 08:29:43;;;;;;;5.40;2.60;;;;;;;21.70;76.28;100663.77;105433;1271;107367;-82
2022/08/06 08:32:22;;;;;;;5.30;2.90;;;;;;;21.69;76.03;100662.77;105526;1271;95671;-87
2022/08/06 08:34:50;;;;;;;13.30;8.30;;;;;;;21.69;76.15;100662.23;105528;1273;95165;-84
2022/08/06 08:37:20;;;;;;;5.20;2.60;;;;;;;21.62;76.35;100663.59;105399;1271;140913;-81
2022/08/06 08:39:48;;;;;;;5.40;2.40;;;;;;;21.55;76.46;100686.83;105568;1271;99617;-83
2022/08/06 08:42:19;;;;;;;5.00;2.30;;;;;;;21.53;76.16;100716.03;105225;1273;139353;-82
2022/08/06 08:45:00;;;;;;;4.80;2.10;;;;;;;21.54;75.90;100745.95;105334;1271;95304;-82
2022/08/06 08:47:33;;;;;;;5.50;2.00;;;;;;;21.51;75.98;100755.89;105460;1271;95112;-81
2022/08/06 08:50:24;;;;;;;5.40;2.30;;;;;;;21.50;75.68;100758.15;105448;1272;110345;-83
2022/08/06 08:53:02;;;;;;;5.50;2.10;;;;;;;21.56;75.69;100762.14;105657;1271;97226;-85
2022/08/06 08:55:31;;;;;;;5.00;2.20;;;;;;;21.54;75.56;100767.81;105292;1271;140532;-82
2022/08/06 08:58:21;;;;;;;4.80;2.10;;;;;;;21.51;75.46;100770.73;105442;1271;95587;-84
2022/08/06 09:01:09;;;;;;;4.40;2.00;;;;;;;21.43;75.48;100770.69;105266;1271;140682;-87
2022/08/06 09:03:58;;;;;;;4.10;1.80;;;;;;;21.37;75.44;100759.73;105453;1271;109511;-85
2022/08/06 09:06:29;;;;;;;4.10;1.70;;;;;;;21.31;75.59;100760.45;105293;1271;141936;-85
2022/08/06 09:09:05;;;;;;;4.40;1.90;;;;;;;21.30;75.99;100756.35;105397;1271;109614;-84
2022/08/06 09:11:36;;;;;;;4.80;2.10;;;;;;;21.30;75.83;100751.88;105419;1271;95242;-82
2022/08/06 09:14:24;;;;;;;5.70;2.00;;;;;;;21.30;76.05;100749.67;105395;1271;95128;-80
2022/08/06 09:17:02;;;;;;;5.00;2.30;;;;;;;21.31;76.22;100752.86;105509;1271;110168;-83
2022/08/06 09:19:32;;;;;;;5.30;2.00;;;;;;;21.36;76.19;100759.81;105249;1271;141039;-82
2022/08/06 09:22:06;;;;;;;4.80;2.10;;;;;;;21.32;76.42;100767.78;105364;1271;108792;-82
2022/08/06 09:24:37;;;;;;;4.80;2.00;;;;;;;21.25;76.06;100774.20;105292;1272;139666;-83
2022/08/06 09:27:12;;;;;;;4.50;1.70;;;;;;;21.17;75.70;100783.21;105413;1271;95255;-84
2022/08/06 09:30:07;;;;;;;4.70;1.80;;;;;;;21.01;75.12;100795.09;105229;1271;141511;-83
2022/08/06 09:32:57;;;;;;;4.80;1.80;;;;;;;20.90;74.96;100794.85;105616;1271;98746;-81
2022/08/06 09:35:57;;;;;;;12.00;8.40;;;;;;;20.86;74.80;100799.27;105232;1271;139810;-81
2022/08/06 09:38:27;;;;;;;6.90;3.00;;;;;;;20.83;75.02;100800.00;105272;1271;95235;-80
2022/08/06 09:41:08;;;;;;;4.80;1.80;;;;;;;20.80;74.25;100801.45;105222;1271;95233;-82
2022/08/06 09:43:45;;;;;;;5.30;2.20;;;;;;;20.69;73.92;100806.23;105308;1271;140812;-84
2022/08/06 09:46:50;;;;;;;5.40;2.00;;;;;;;20.65;74.24;100817.14;105430;1271;98638;-82
2022/08/06 09:49:19;;;;;;;6.60;2.30;;;;;;;20.62;74.31;100822.03;105241;1271;138553;-84
2022/08/06 09:52:15;;;;;;;4.70;2.00;;;;;;;20.54;74.67;100829.00;105358;1271;95231;-83
2022/08/06 09:54:46;;;;;;;5.00;2.00;;;;;;;20.47;74.62;100827.80;105367;1271;140503;-81
2022/08/06 09:57:25;;;;;;;6.20;2.10;;;;;;;20.39;74.39;100828.11;105246;1271;110084;-83
2022/08/06 10:00:05;;;;;;;8.80;2.10;;;;;;;20.36;74.44;100837.67;105088;1271;140740;-84
2022/08/06 10:02:44;;;;;;;5.30;2.00;;;;;;;20.34;74.41;100841.94;105358;1271;108221;-83
2022/08/06 10:05:19;;;;;;;4.70;1.90;;;;;;;20.29;74.72;100841.67;105318;1271;96445;-82
2022/08/06 10:08:09;;;;;;;5.10;2.00;;;;;;;20.28;74.81;100835.65;105289;1273;139230;-82
2022/08/06 10:10:45;;;;;;;5.50;1.90;;;;;;;20.25;74.77;100828.63;105281;1271;109270;-80
2022/08/06 10:13:18;;;;;;;4.80;1.70;;;;;;;20.20;74.25;100829.94;105353;1271;139334;-79
2022/08/06 10:15:50;;;;;;;5.40;1.80;;;;;;;20.16;74.09;100842.29;105354;1271;107921;-81
2022/08/06 10:18:42;;;;;;;4.40;1.70;;;;;;;20.12;74.52;100850.08;105424;1271;140391;-83
2022/08/06 10:21:28;;;;;;;7.60;4.40;;;;;;;20.10;74.50;100846.96;105661;1270;95433;-84
2022/08/06 10:24:08;;;;;;;5.80;2.40;;;;;;;20.08;74.47;100852.35;105578;1271;139356;-84
2022/08/06 10:26:37;;;;;;;5.10;1.60;;;;;;;20.05;74.69;100862.61;106469;1271;98081;-84
2022/08/06 10:29:17;;;;;;;5.30;1.70;;;;;;;20.07;74.75;100873.81;107673;1271;106482;-83
2022/08/06 10:31:53;;;;;;;4.40;1.30;;;;;;;20.06;73.74;100875.52;107727;1271;138212;-83
2022/08/06 10:34:26;;;;;;;4.80;1.40;;;;;;;19.97;73.56;100875.11;106362;1273;95026;-81
2022/08/06 10:37:02;;;;;;;3.90;1.30;;;;;;;19.89;74.03;100878.66;105272;1271;138881;-81
2022/08/06 10:39:59;;;;;;;5.10;1.40;;;;;;;19.81;73.99;100888.30;105491;1273;99816;-82
2022/08/06 10:42:38;;;;;;;4.80;1.50;;;;;;;19.75;74.13;100893.50;105342;1273;139183;-82
2022/08/06 10:45:09;;;;;;;4.50;1.50;;;;;;;19.70;74.16;100892.64;105345;1271;95518;-80
2022/08/06 10:47:44;;;;;;;4.90;1.50;;;;;;;19.71;74.36;100893.66;105428;1271;95410;-82
2022/08/06 10:50:33;;;;;;;4.50;1.60;;;;;;;19.75;74.63;100895.98;105362;1272;109144;-81
2022/08/06 10:53:12;;;;;;;5.90;1.70;;;;;;;19.79;74.50;100904.95;105317;1271;100308;-83
2022/08/06 10:56:02;;;;;;;5.30;1.60;;;;;;;19.80;74.60;100913.72;105613;1270;139584;-82
2022/08/06 10:58:33;;;;;;;4.50;1.50;;;;;;;19.80;74.50;100920.20;105328;1273;96395;-81
2022/08/06 11:01:18;;;;;;;5.30;1.60;;;;;;;19.74;74.39;100919.11;105312;1271;140965;-81
2022/08/06 11:04:14;;;;;;;4.50;1.60;;;;;;;19.62;74.27;100914.76;105332;1271;110870;-83
2022/08/06 11:07:16;;;;;;;4.70;1.40;;;;;;;19.59;74.40;100910.23;105458;1270;139622;-81
2022/08/06 11:10:29;;;;;;;21.00;13.30;;;;;;;19.57;74.52;100910.35;105497;1273;109352;-82
2022/08/06 11:13:22;;;;;;;4.50;1.40;;;;;;;19.59;74.43;100915.45;105427;1271;141480;-81
2022/08/06 11:16:05;;;;;;;4.40;1.40;;;;;;;19.54;74.48;100908.83;105299;1271;95713;-81
2022/08/06 11:18:34;;;;;;;4.50;1.40;;;;;;;19.50;74.81;100899.16;105311;1271;139018;-82
2022/08/06 11:21:05;;;;;;;3.70;1.30;;;;;;;19.55;74.90;100898.55;105283;1273;100349;-80
2022/08/06 11:23:33;;;;;;;5.30;1.30;;;;;;;19.61;74.57;100897.68;105532;1273;109244;-83
2022/08/06 11:26:39;;;;;;;4.70;1.20;;;;;;;19.57;74.15;100895.91;105741;1271;95769;-81
2022/08/06 11:29:13;;;;;;;4.50;1.30;;;;;;;19.50;73.33;100896.83;105645;1271;95202;-82
2022/08/06 11:31:50;;;;;;;4.10;1.30;;;;;;;19.44;74.04;100906.93;105319;1271;138353;-82
2022/08/06 11:34:43;;;;;;;6.10;1.90;;;;;;;19.40;74.13;100919.02;105465;1271;100035;-82
2022/08/06 11:37:43;;;;;;;4.70;1.30;;;;;;;19.30;74.60;100929.10;105489;1273;140438;-84
2022/08/06 11:40:57;;;;;;;5.60;1.40;;;;;;;19.22;74.59;100934.75;105831;1271;95796;-83
2022/08/06 11:43:40;;;;;;;4.70;1.30;;;;;;;19.09;74.90;100935.77;105401;1274;140611;-82
2022/08/06 11:46:31;;;;;;;3.90;1.40;;;;;;;19.06;75.11;100937.41;106210;1271;109291;-82
2022/08/06 11:49:34;;;;;;;4.50;1.70;;;;;;;19.07;75.41;100939.50;105680;1271;138144;-82
2022/08/06 11:52:49;;;;;;;4.80;1.30;;;;;;;18.99;75.05;100934.14;105585;1271;109168;-83
2022/08/06 11:55:17;;;;;;;4.80;1.50;;;;;;;18.95;75.51;100928.45;105086;1278;139408;-82
2022/08/06 11:58:20;;;;;;;4.40;1.40;;;;;;;18.94;75.50;100934.80;105123;1277;95766;-81
2022/08/06 12:00:59;;;;;;;5.10;1.40;;;;;;;18.89;75.58;100942.77;105211;1273;139009;-81
2022/08/06 12:03:47;;;;;;;4.90;1.70;;;;;;;18.84;75.95;100945.87;105733;1271;100232;-82
2022/08/06 12:06:23;;;;;;;5.70;1.80;;;;;;;18.81;76.12;100949.08;105585;1271;141586;-83
2022/08/06 12:09:09;;;;;;;5.90;1.90;;;;;;;18.79;76.56;100951.02;106113;1271;94954;-82
2022/08/06 12:11:50;;;;;;;4.60;1.80;;;;;;;18.77;76.81;100951.31;106063;1271;141362;-83